Terminal Aerodrome Forecast
Issued by NWS

Home | Current Version | Previous Version | Text Only | Print | Product List | Glossary On
Versions: 1 2 3 4 5 6 7 8 9 10 11 12 13 14 15 16 17 18 19 20 21
779
FTUS43 KMPX 230520
TAFRNH
TAF
KRNH 230520Z 2306/2406 VRB02KT 1 1/2SM -DZ BR OVC004
      TEMPO 2307/2310 3/4SM BR OVC002
     FM231000 29004KT 1SM BR OVC003
     FM231500 28003KT 5SM BR OVC008
     FM231900 27003KT P6SM OVC015
     FM240200 VRB02KT 4SM BR OVC008=

USA.gov is the U.S. government's official web portal to all federal, state and local government web resources and services.